Time;durP1;ratioP1;P1;durP2;ratioP2;P2;SDS_P1;SDS_P2;PMS_P1;PMS_P2;Temp;Humidity;BMP_temperature;BMP_pressure;BME280_temperature;BME280_humidity;BME280_pressure;Samples;Min_cycle;Max_cycle;Signal;HPM_P1;HPM_P2
2023/07/21 00:00:29;;;;;;;1.95;1.10;;;;;;;33.86;29.71;101092.84;4950276;28;20560;-79
2023/07/21 00:02:58;;;;;;;4.57;1.50;;;;;;;33.87;29.31;101088.31;4950598;28;20054;-75
2023/07/21 00:05:28;;;;;;;11.43;1.95;;;;;;;33.90;29.42;101090.78;4951041;28;20070;-79
2023/07/21 00:07:57;;;;;;;3.20;1.42;;;;;;;33.93;29.60;101091.47;4950254;28;20126;-77
2023/07/21 00:10:25;;;;;;;6.38;1.33;;;;;;;33.95;29.57;101089.56;4948401;28;20062;-81
2023/07/21 00:12:54;;;;;;;2.00;1.02;;;;;;;33.99;29.64;101088.41;4951719;28;20059;-82
2023/07/21 00:15:23;;;;;;;3.40;1.00;;;;;;;34.08;29.52;101083.41;4954228;28;20039;-77
2023/07/21 00:17:51;;;;;;;4.40;1.10;;;;;;;34.13;29.72;101086.66;4949567;28;20054;-80
2023/07/21 00:20:21;;;;;;;3.38;1.08;;;;;;;34.17;29.02;101080.16;4950592;28;20058;-80
2023/07/21 00:22:52;;;;;;;5.82;1.10;;;;;;;34.18;29.60;101073.84;4959068;28;20051;-77
2023/07/21 00:25:21;;;;;;;2.72;1.20;;;;;;;34.18;29.41;101068.47;4959456;28;20049;-78
2023/07/21 00:27:49;;;;;;;3.47;1.38;;;;;;;34.12;28.55;101075.06;4958275;28;20046;-78
2023/07/21 00:30:21;;;;;;;3.38;1.02;;;;;;;33.82;29.24;101072.50;4951899;28;20074;-77
2023/07/21 00:32:49;;;;;;;5.75;0.93;;;;;;;33.69;29.62;101066.19;4944526;28;20590;-78
2023/07/21 00:35:18;;;;;;;7.20;1.27;;;;;;;33.67;29.88;101062.72;4945093;28;20047;-77
2023/07/21 00:37:46;;;;;;;7.05;1.30;;;;;;;33.66;29.83;101061.00;4962978;28;20073;-76
2023/07/21 00:40:19;;;;;;;6.07;1.20;;;;;;;33.63;30.34;101061.19;4961670;28;20055;-80
2023/07/21 00:42:48;;;;;;;4.22;1.20;;;;;;;33.62;30.05;101071.06;4954337;28;20146;-77
2023/07/21 00:45:17;;;;;;;1.63;0.98;;;;;;;33.58;30.13;101065.03;4942779;28;20047;-78
2023/07/21 00:47:46;;;;;;;5.47;1.20;;;;;;;33.55;30.38;101062.50;4943925;28;20517;-77
2023/07/21 00:50:16;;;;;;;6.18;1.10;;;;;;;33.56;29.98;101052.66;4949810;28;20055;-79
2023/07/21 00:52:50;;;;;;;2.67;1.20;;;;;;;33.55;29.76;101056.28;4951950;28;20058;-78
2023/07/21 00:55:22;;;;;;;4.50;1.00;;;;;;;33.47;30.30;101056.75;4955797;28;20055;-81
2023/07/21 00:57:51;;;;;;;6.53;1.02;;;;;;;33.47;30.03;101063.94;4954126;28;20540;-78
2023/07/21 01:00:19;;;;;;;4.97;1.27;;;;;;;33.39;29.98;101059.03;4954643;28;20047;-79
2023/07/21 01:02:50;;;;;;;3.25;1.13;;;;;;;33.31;30.08;101062.22;4955076;28;20137;-80
2023/07/21 01:05:20;;;;;;;3.83;1.10;;;;;;;33.24;30.07;101063.53;4952228;28;20050;-77
2023/07/21 01:07:50;;;;;;;3.70;1.10;;;;;;;33.12;30.67;101075.00;4952453;28;20103;-77
2023/07/21 01:10:21;;;;;;;5.28;1.13;;;;;;;33.06;31.26;101064.66;4956849;28;20043;-82
2023/07/21 01:12:50;;;;;;;4.32;1.27;;;;;;;33.04;31.07;101066.53;4958725;28;20051;-78
2023/07/21 01:15:18;;;;;;;2.90;1.10;;;;;;;32.98;31.50;101062.38;4952452;28;20055;-78
2023/07/21 01:17:51;;;;;;;8.52;1.10;;;;;;;32.96;31.17;101064.28;4951668;28;20055;-77
2023/07/21 01:20:22;;;;;;;5.00;1.20;;;;;;;32.94;31.24;101063.50;4953264;28;20085;-78
2023/07/21 01:22:54;;;;;;;2.63;1.20;;;;;;;32.93;30.84;101067.16;4956318;28;20043;-77
2023/07/21 01:25:25;;;;;;;2.30;1.00;;;;;;;32.80;31.05;101055.44;4953313;28;20055;-80
2023/07/21 01:27:55;;;;;;;4.17;1.33;;;;;;;32.74;31.24;101060.22;4955373;28;20051;-79
2023/07/21 01:30:24;;;;;;;4.28;1.27;;;;;;;32.71;31.12;101067.56;4955425;28;20735;-78
2023/07/21 01:32:54;;;;;;;2.00;1.10;;;;;;;32.67;31.12;101064.22;4953195;28;20162;-79
2023/07/21 01:35:28;;;;;;;3.35;1.13;;;;;;;32.66;31.22;101059.78;4942227;28;20334;-79
2023/07/21 01:37:58;;;;;;;5.05;1.40;;;;;;;32.65;31.14;101063.44;4945315;28;20351;-78
2023/07/21 01:40:31;;;;;;;1.40;1.13;;;;;;;32.66;31.24;101064.28;4951752;28;20051;-80
2023/07/21 01:43:03;;;;;;;5.05;1.20;;;;;;;32.63;31.11;101061.81;4951182;28;20063;-82
2023/07/21 01:45:32;;;;;;;5.30;1.20;;;;;;;32.59;31.38;101058.41;4952020;28;20055;-81
2023/07/21 01:48:01;;;;;;;2.88;1.10;;;;;;;32.54;30.75;101055.16;4931373;29;20055;-77
2023/07/21 01:50:31;;;;;;;3.63;1.00;;;;;;;32.51;31.17;101066.06;4949870;28;20047;-76
2023/07/21 01:53:05;;;;;;;4.53;1.00;;;;;;;32.50;31.59;101058.94;4948148;28;20063;-77
2023/07/21 01:55:41;;;;;;;2.70;1.33;;;;;;;32.48;31.54;101066.19;4952575;28;20138;-79
2023/07/21 01:58:13;;;;;;;4.22;1.00;;;;;;;32.43;31.07;101065.59;4951236;28;20047;-77
2023/07/21 02:00:45;;;;;;;2.60;1.52;;;;;;;32.36;31.85;101062.41;4940625;28;20043;-80
2023/07/21 02:03:15;;;;;;;1.83;1.08;;;;;;;32.29;31.98;101063.69;4950340;28;20050;-79
2023/07/21 02:05:45;;;;;;;3.45;1.10;;;;;;;32.24;31.65;101063.97;4953602;28;20052;-79
2023/07/21 02:08:13;;;;;;;3.42;1.00;;;;;;;32.18;31.55;101064.28;4951116;28;20151;-77
2023/07/21 02:10:44;;;;;;;7.43;1.10;;;;;;;32.13;31.86;101067.22;4952666;28;20043;-80
2023/07/21 02:13:14;;;;;;;4.10;1.50;;;;;;;32.09;31.99;101057.66;4947680;28;20051;-78
2023/07/21 02:15:43;;;;;;;3.45;0.93;;;;;;;32.04;31.96;101058.88;4950900;28;20385;-77
2023/07/21 02:18:12;;;;;;;1.30;0.90;;;;;;;31.90;31.76;101052.44;4950193;28;20493;-78
2023/07/21 02:20:42;;;;;;;4.28;0.85;;;;;;;31.88;32.36;101065.03;4948247;28;20051;-78
2023/07/21 02:23:10;;;;;;;2.03;0.70;;;;;;;31.80;32.62;101063.75;4952348;28;20067;-77
2023/07/21 02:25:39;;;;;;;2.80;0.75;;;;;;;31.74;32.69;101070.28;4953940;28;20633;-78
2023/07/21 02:28:09;;;;;;;4.35;0.70;;;;;;;31.68;33.21;101070.59;4945847;28;20047;-76
2023/07/21 02:30:39;;;;;;;2.35;0.82;;;;;;;31.60;32.88;101067.47;4956181;28;20567;-79
2023/07/21 02:33:10;;;;;;;3.33;0.80;;;;;;;31.49;33.72;101066.22;4950465;28;20056;-78
2023/07/21 02:35:39;;;;;;;4.38;0.90;;;;;;;31.35;34.49;101063.41;4951096;28;20493;-77
2023/07/21 02:38:08;;;;;;;2.20;0.70;;;;;;;31.26;33.86;101061.22;4949540;28;20058;-78
2023/07/21 02:40:36;;;;;;;1.35;0.70;;;;;;;31.20;34.63;101070.44;4944919;28;20049;-78
2023/07/21 02:43:06;;;;;;;2.85;0.65;;;;;;;31.12;34.17;101066.41;4938433;28;20055;-77
2023/07/21 02:45:37;;;;;;;2.63;0.77;;;;;;;31.01;34.56;101072.31;4942639;28;20047;-78
2023/07/21 02:48:07;;;;;;;3.17;0.50;;;;;;;30.94;35.00;101073.56;4945542;28;20136;-80
2023/07/21 02:50:36;;;;;;;2.60;0.70;;;;;;;30.84;34.86;101074.03;4948908;28;20417;-82
2023/07/21 02:53:06;;;;;;;2.15;0.93;;;;;;;30.78;34.57;101078.78;4944589;29;20051;-76
2023/07/21 02:55:35;;;;;;;5.55;0.80;;;;;;;30.70;34.97;101081.84;4941976;28;20050;-82
2023/07/21 02:58:03;;;;;;;2.00;0.80;;;;;;;30.59;34.97;101079.69;4949850;28;20059;-83
2023/07/21 03:00:32;;;;;;;3.70;0.80;;;;;;;30.46;35.48;101078.56;4936629;28;20059;-75
2023/07/21 03:03:03;;;;;;;2.20;0.80;;;;;;;30.34;35.46;101073.81;4946991;28;20556;-80
2023/07/21 03:05:32;;;;;;;4.40;0.95;;;;;;;30.22;36.75;101075.25;4958271;28;20046;-77
2023/07/21 03:08:01;;;;;;;1.73;0.50;;;;;;;30.12;36.57;101072.13;4940092;28;20058;-83
2023/07/21 03:10:29;;;;;;;4.97;0.70;;;;;;;29.96;37.24;101064.00;4950654;28;20055;-81
2023/07/21 03:12:58;;;;;;;2.65;0.63;;;;;;;29.87;37.40;101069.78;4949280;28;20110;-80
2023/07/21 03:15:27;;;;;;;2.05;0.63;;;;;;;29.84;38.11;101080.56;4943339;28;20071;-79
2023/07/21 03:17:55;;;;;;;3.20;0.68;;;;;;;29.73;38.17;101083.72;4950818;28;20731;-81
2023/07/21 03:20:26;;;;;;;0.85;0.60;;;;;;;29.62;38.54;101088.66;4947657;28;20057;-82
2023/07/21 03:23:01;;;;;;;3.53;0.60;;;;;;;29.49;38.56;101098.13;4941339;28;20107;-77
2023/07/21 03:25:30;;;;;;;3.25;0.73;;;;;;;29.38;38.27;101098.59;4940197;28;20047;-77
2023/07/21 03:27:59;;;;;;;0.75;0.40;;;;;;;29.29;38.39;101102.50;4954519;28;20438;-75
2023/07/21 03:30:41;;;;;;;3.15;0.65;;;;;;;29.17;38.57;101105.72;4954258;28;20059;-78
2023/07/21 03:33:16;;;;;;;;;;;;;;;28.99;38.74;101110.00;4929393;29;20156;-75
2023/07/21 03:35:46;;;;;;;3.75;0.60;;;;;;;28.86;38.75;101114.94;4933593;29;19952;-82
2023/07/21 03:38:16;;;;;;;1.70;0.57;;;;;;;28.56;39.48;101115.25;4930418;29;20090;-77
2023/07/21 03:40:44;;;;;;;3.20;0.60;;;;;;;28.34;40.13;101120.53;4922958;29;20047;-80
2023/07/21 03:43:13;;;;;;;2.30;0.60;;;;;;;28.22;40.22;101120.13;4931618;29;20043;-79
2023/07/21 03:45:42;;;;;;;4.82;0.55;;;;;;;28.08;40.28;101120.66;4924380;29;20048;-78
2023/07/21 03:48:12;;;;;;;0.95;0.47;;;;;;;27.90;40.61;101122.22;4925044;29;20052;-78
2023/07/21 03:50:41;;;;;;;2.03;0.50;;;;;;;27.71;40.92;101122.00;4919161;29;20048;-79
2023/07/21 03:53:11;;;;;;;0.95;0.57;;;;;;;27.61;40.82;101129.44;4929220;29;20142;-77
2023/07/21 03:55:43;;;;;;;2.47;0.60;;;;;;;27.47;41.76;101123.75;4920500;29;21127;-78
2023/07/21 03:58:11;;;;;;;1.52;0.55;;;;;;;27.30;42.02;101129.63;4920114;29;20055;-79
2023/07/21 04:00:43;;;;;;;2.20;0.70;;;;;;;27.20;42.05;101139.72;4926961;29;20051;-81
2023/07/21 04:03:12;;;;;;;3.00;0.60;;;;;;;27.10;41.90;101147.09;4923903;29;20139;-76
2023/07/21 04:05:40;;;;;;;2.17;0.70;;;;;;;26.99;42.15;101145.72;4932396;29;20051;-78
2023/07/21 04:08:12;;;;;;;1.77;0.93;;;;;;;26.87;42.53;101150.50;4926674;29;20051;-79
2023/07/21 04:10:42;;;;;;;3.20;0.50;;;;;;;26.74;42.72;101157.09;4930213;29;20043;-78
2023/07/21 04:13:11;;;;;;;2.55;0.57;;;;;;;26.62;42.67;101157.47;4931436;29;20055;-77
2023/07/21 04:15:40;;;;;;;2.10;0.45;;;;;;;26.53;42.90;101161.28;4926748;29;20060;-78
2023/07/21 04:18:08;;;;;;;0.63;0.40;;;;;;;26.46;43.86;101171.19;4916311;29;20112;-78
2023/07/21 04:20:37;;;;;;;3.22;0.60;;;;;;;26.31;43.97;101172.50;4921425;29;20048;-79
2023/07/21 04:23:06;;;;;;;1.88;0.45;;;;;;;26.18;44.18;101162.31;4926745;29;20051;-79
2023/07/21 04:25:36;;;;;;;2.10;0.50;;;;;;;26.08;44.50;101175.81;4929590;29;20055;-79
2023/07/21 04:28:05;;;;;;;6.88;0.50;;;;;;;26.00;44.45;101175.19;4926316;29;20059;-80
2023/07/21 04:30:34;;;;;;;1.95;0.60;;;;;;;25.95;44.81;101181.50;4929091;28;20080;-78
2023/07/21 04:33:03;;;;;;;0.52;0.38;;;;;;;25.82;44.77;101184.47;4944653;28;20529;-80
2023/07/21 04:35:32;;;;;;;2.00;0.43;;;;;;;25.69;44.99;101186.56;4943722;28;20522;-82
2023/07/21 04:38:01;;;;;;;0.65;0.40;;;;;;;25.53;45.57;101189.69;4953265;29;20074;-78
2023/07/21 04:40:30;;;;;;;3.22;0.40;;;;;;;25.39;45.77;101192.69;4947950;28;20047;-79
2023/07/21 04:43:00;;;;;;;1.98;0.43;;;;;;;25.33;46.14;101195.47;4927728;29;20076;-79
2023/07/21 04:45:29;;;;;;;2.53;0.57;;;;;;;25.25;46.18;101196.53;4938311;28;20106;-80
2023/07/21 04:47:57;;;;;;;3.20;0.40;;;;;;;25.14;47.01;101197.69;4938891;28;20063;-83
2023/07/21 04:50:26;;;;;;;1.27;0.40;;;;;;;25.05;46.56;101198.75;4941516;28;20081;-79
2023/07/21 04:52:55;;;;;;;0.82;0.40;;;;;;;24.95;46.65;101205.19;4947937;28;20470;-79
2023/07/21 04:55:26;;;;;;;2.13;0.47;;;;;;;24.80;47.07;101204.59;4950087;28;20573;-81
2023/07/21 04:57:56;;;;;;;1.95;0.60;;;;;;;24.70;47.27;101203.09;4950694;28;20087;-79
2023/07/21 05:00:27;;;;;;;1.67;0.50;;;;;;;24.62;47.87;101207.66;4945995;28;20679;-77
2023/07/21 05:02:57;;;;;;;2.15;0.40;;;;;;;24.58;47.89;101211.28;4947009;28;20797;-79
2023/07/21 05:05:25;;;;;;;5.80;0.60;;;;;;;24.55;48.28;101214.00;4950479;28;20169;-79
2023/07/21 05:07:54;;;;;;;2.45;0.57;;;;;;;24.46;48.49;101212.38;4948051;28;20509;-79
2023/07/21 05:10:23;;;;;;;2.60;0.50;;;;;;;24.37;49.18;101208.16;4954985;28;20210;-79
2023/07/21 05:12:51;;;;;;;5.30;0.60;;;;;;;24.27;48.57;101203.94;4953790;28;20051;-80
2023/07/21 05:15:20;;;;;;;2.28;0.60;;;;;;;24.13;49.33;101209.53;4954949;28;20058;-80
2023/07/21 05:17:50;;;;;;;1.45;0.47;;;;;;;23.96;49.80;101215.13;4952794;28;20055;-79
2023/07/21 05:20:20;;;;;;;1.05;0.40;;;;;;;23.70;50.56;101199.72;4952841;28;20517;-78
2023/07/21 05:22:48;;;;;;;1.85;0.50;;;;;;;23.70;50.77;101214.69;4950908;28;20525;-76
2023/07/21 05:25:17;;;;;;;1.65;0.47;;;;;;;23.65;51.09;101220.06;4946917;28;20059;-77
2023/07/21 05:27:49;;;;;;;3.90;0.70;;;;;;;23.58;51.10;101223.72;4949579;28;20051;-78
2023/07/21 05:30:18;;;;;;;2.63;0.55;;;;;;;23.44;51.38;101226.59;4946665;28;20062;-80
2023/07/21 05:32:47;;;;;;;2.80;0.60;;;;;;;23.18;52.20;101203.22;4953141;28;20059;-77
2023/07/21 05:35:18;;;;;;;1.75;0.65;;;;;;;23.10;52.57;101227.09;4947575;28;20047;-78
2023/07/21 05:37:46;;;;;;;1.80;0.40;;;;;;;22.96;53.46;101226.41;4952076;28;20059;-78
2023/07/21 05:40:15;;;;;;;2.13;0.52;;;;;;;22.79;54.44;101224.88;4951849;28;20399;-79
2023/07/21 05:42:43;;;;;;;0.90;0.55;;;;;;;22.68;54.49;101224.16;4951246;28;20051;-79
2023/07/21 05:45:13;;;;;;;2.05;0.50;;;;;;;22.60;54.41;101226.00;4949711;28;20461;-79
2023/07/21 05:47:41;;;;;;;0.70;0.40;;;;;;;22.52;54.58;101233.16;4953267;28;20141;-79
2023/07/21 05:50:11;;;;;;;2.50;0.63;;;;;;;22.46;54.71;101230.59;4951749;28;20056;-77
2023/07/21 05:52:53;;;;;;;0.60;0.50;;;;;;;22.25;56.30;101240.47;4951481;28;20513;-78
2023/07/21 05:55:22;;;;;;;1.13;0.55;;;;;;;22.11;56.37;101237.09;4952044;28;20062;-79
2023/07/21 05:57:53;;;;;;;0.73;0.40;;;;;;;22.00;57.06;101241.59;4952104;28;20047;-77
2023/07/21 06:00:25;;;;;;;0.70;0.50;;;;;;;21.88;57.09;101246.09;4951081;28;20043;-80
2023/07/21 06:02:54;;;;;;;4.40;0.53;;;;;;;21.78;57.29;101248.81;4953198;28;20285;-77
2023/07/21 06:05:22;;;;;;;1.95;0.50;;;;;;;21.68;58.44;101255.94;4948310;28;20680;-76
2023/07/21 06:07:53;;;;;;;1.35;0.50;;;;;;;21.54;58.79;101251.66;4950202;28;20133;-77
2023/07/21 06:10:24;;;;;;;0.98;0.52;;;;;;;21.43;59.33;101258.75;4950090;28;20061;-77
2023/07/21 06:12:53;;;;;;;2.55;0.47;;;;;;;21.32;59.76;101263.19;4952019;28;20053;-77
2023/07/21 06:15:22;;;;;;;1.38;0.50;;;;;;;21.22;60.29;101258.88;4951628;28;20091;-77
2023/07/21 06:17:50;;;;;;;2.78;0.60;;;;;;;21.15;60.28;101263.31;4952133;28;20138;-76
2023/07/21 06:20:20;;;;;;;2.60;0.60;;;;;;;21.15;60.64;101262.44;4950277;28;20052;-77
2023/07/21 06:22:49;;;;;;;1.95;0.47;;;;;;;21.10;61.14;101268.59;4952480;28;20055;-77
2023/07/21 06:25:20;;;;;;;0.73;0.30;;;;;;;21.07;60.42;101268.63;4952476;28;20050;-77
2023/07/21 06:27:50;;;;;;;0.30;0.30;;;;;;;21.06;60.43;101277.38;4944136;28;20142;-80
2023/07/21 06:30:19;;;;;;;1.65;0.40;;;;;;;21.01;60.52;101270.41;4948788;28;20141;-77
2023/07/21 06:32:48;;;;;;;0.75;0.55;;;;;;;20.96;60.96;101278.34;4952357;28;20657;-78
2023/07/21 06:35:16;;;;;;;0.63;0.60;;;;;;;20.89;60.99;101276.59;4947983;28;20047;-77
2023/07/21 06:37:45;;;;;;;0.40;0.30;;;;;;;20.80;61.60;101280.16;4950999;28;20053;-75
2023/07/21 06:40:14;;;;;;;1.15;0.50;;;;;;;20.73;61.70;101281.06;4950540;28;20059;-76
2023/07/21 06:42:47;;;;;;;1.15;0.40;;;;;;;20.67;62.27;101271.44;4945309;28;20083;-77
2023/07/21 06:45:16;;;;;;;0.47;0.30;;;;;;;20.62;62.39;101278.47;4952104;28;20042;-78
2023/07/21 06:47:45;;;;;;;0.52;0.40;;;;;;;20.48;62.79;101275.00;4949648;28;20055;-77
2023/07/21 06:50:14;;;;;;;0.40;0.30;;;;;;;20.49;63.59;101282.84;4945901;28;20699;-76
2023/07/21 06:52:42;;;;;;;0.43;0.30;;;;;;;20.41;63.46;101281.13;4949388;28;20055;-76
2023/07/21 06:55:11;;;;;;;0.55;0.30;;;;;;;20.39;63.64;101283.78;4948510;28;20051;-77
2023/07/21 06:57:44;;;;;;;1.23;0.28;;;;;;;20.35;64.07;101289.03;4951410;28;20043;-76
2023/07/21 07:00:16;;;;;;;0.40;0.40;;;;;;;20.25;64.83;101285.56;4950452;28;20055;-77
2023/07/21 07:02:49;;;;;;;0.32;0.25;;;;;;;20.13;65.44;101288.19;4948050;28;20089;-78
2023/07/21 07:05:18;;;;;;;0.50;0.30;;;;;;;20.10;65.55;101304.84;4948290;28;20043;-77
2023/07/21 07:07:46;;;;;;;0.82;0.57;;;;;;;20.09;66.11;101297.84;4951449;28;20102;-76
2023/07/21 07:10:15;;;;;;;1.05;0.20;;;;;;;20.13;65.53;101298.72;4947497;28;20073;-76
2023/07/21 07:12:45;;;;;;;0.40;0.30;;;;;;;20.13;65.90;101293.44;4950363;28;20517;-77
2023/07/21 07:15:14;;;;;;;1.27;0.38;;;;;;;20.13;65.74;101294.31;4952001;28;20055;-77
2023/07/21 07:17:43;;;;;;;0.57;0.47;;;;;;;20.11;65.54;101282.94;4952556;28;20043;-78
2023/07/21 07:20:12;;;;;;;2.55;1.20;;;;;;;20.12;65.29;101297.84;4947642;28;20062;-77
2023/07/21 07:22:41;;;;;;;3.03;0.30;;;;;;;20.09;65.30;101295.22;4948362;28;20051;-77
2023/07/21 07:25:10;;;;;;;0.30;0.30;;;;;;;20.09;65.14;101297.84;4950972;28;20054;-76
2023/07/21 07:27:39;;;;;;;0.70;0.40;;;;;;;20.10;65.60;101291.72;4950576;28;20043;-76
2023/07/21 07:30:10;;;;;;;0.73;0.40;;;;;;;20.08;65.63;101298.72;4948176;28;20048;-77
2023/07/21 07:32:39;;;;;;;0.77;0.45;;;;;;;20.05;66.00;101301.34;4952295;28;20102;-77
2023/07/21 07:35:10;;;;;;;1.45;0.60;;;;;;;19.98;67.00;101295.22;4949171;28;20098;-76
2023/07/21 07:37:38;;;;;;;0.70;0.43;;;;;;;19.84;67.96;101303.09;4944593;28;20051;-75
2023/07/21 07:40:11;;;;;;;1.38;0.40;;;;;;;19.75;68.10;101305.72;4945966;28;20062;-76
2023/07/21 07:42:41;;;;;;;1.38;0.32;;;;;;;19.67;68.72;101307.44;4945334;28;20090;-75
2023/07/21 07:45:12;;;;;;;2.10;0.45;;;;;;;19.56;69.14;101309.16;4947151;28;20075;-76
2023/07/21 07:47:42;;;;;;;1.23;0.45;;;;;;;19.50;69.70;101306.56;4949479;28;20691;-76
2023/07/21 07:50:11;;;;;;;0.95;0.40;;;;;;;19.46;69.53;101300.41;4947496;28;20051;-76
2023/07/21 07:52:41;;;;;;;0.63;0.35;;;;;;;19.45;69.94;101304.78;4945078;28;20134;-77
2023/07/21 07:55:10;;;;;;;1.73;0.43;;;;;;;19.45;69.94;101307.41;4945415;28;20146;-76
2023/07/21 07:57:38;;;;;;;0.47;0.30;;;;;;;19.40;70.76;101306.53;4948476;28;20664;-75
2023/07/21 08:00:09;;;;;;;1.15;0.50;;;;;;;19.31;71.00;101306.53;4949679;28;20051;-76
2023/07/21 08:02:39;;;;;;;0.25;0.25;;;;;;;19.29;70.89;101307.38;4943496;28;20055;-77
2023/07/21 08:05:09;;;;;;;0.65;0.50;;;;;;;19.18;70.74;101300.34;4949245;28;20679;-78
2023/07/21 08:07:38;;;;;;;1.20;0.38;;;;;;;19.25;70.97;101311.75;4948653;28;20162;-75
2023/07/21 08:10:08;;;;;;;1.65;0.25;;;;;;;19.22;71.35;101317.00;4947898;28;20082;-77
2023/07/21 08:12:39;;;;;;;1.10;0.50;;;;;;;19.17;71.68;101319.59;4948432;28;20035;-76
2023/07/21 08:15:09;;;;;;;1.85;0.55;;;;;;;19.13;71.39;101315.22;4954038;28;20522;-76
2023/07/21 08:17:40;;;;;;;0.85;0.30;;;;;;;19.14;71.80;101313.47;4946792;28;20051;-76
2023/07/21 08:20:10;;;;;;;1.58;0.50;;;;;;;19.16;71.56;101316.97;4948861;28;20055;-77
2023/07/21 08:22:39;;;;;;;0.60;0.38;;;;;;;19.16;71.36;101316.97;4948747;28;20047;-75
2023/07/21 08:25:08;;;;;;;0.10;0.10;;;;;;;19.15;70.94;101320.44;4949288;28;20047;-76
2023/07/21 08:27:37;;;;;;;0.35;0.35;;;;;;;19.14;71.01;101326.56;4946160;28;20448;-75
2023/07/21 08:30:08;;;;;;;0.40;0.40;;;;;;;19.11;71.58;101326.56;4943861;28;20051;-77
2023/07/21 08:32:37;;;;;;;1.00;0.50;;;;;;;19.05;72.04;101324.78;4952001;28;20059;-77
2023/07/21 08:35:08;;;;;;;0.38;0.20;;;;;;;18.98;71.80;101329.13;4947931;28;20062;-76
2023/07/21 08:37:38;;;;;;;1.50;0.63;;;;;;;18.96;72.21;101320.38;4948440;28;20051;-77
2023/07/21 08:40:08;;;;;;;0.60;0.40;;;;;;;18.93;72.10;101320.38;4945060;28;20536;-76
2023/07/21 08:42:38;;;;;;;0.82;0.43;;;;;;;18.82;73.55;101322.06;4945868;28;20321;-76
2023/07/21 08:45:07;;;;;;;0.38;0.30;;;;;;;18.76;73.98;101315.03;4951886;28;20525;-76
2023/07/21 08:47:36;;;;;;;1.45;0.47;;;;;;;18.72;73.77;101325.50;4955807;28;20057;-75
2023/07/21 08:50:08;;;;;;;0.75;0.30;;;;;;;18.71;73.86;101318.50;4949965;28;20047;-78
2023/07/21 08:52:38;;;;;;;0.40;0.30;;;;;;;18.70;73.58;101320.25;4952195;28;20055;-77
2023/07/21 08:55:08;;;;;;;0.73;0.40;;;;;;;18.72;73.48;101338.63;4947410;28;20051;-77
2023/07/21 08:57:37;;;;;;;2.38;0.60;;;;;;;18.71;73.81;101323.72;4951034;28;20051;-77
2023/07/21 09:00:06;;;;;;;0.50;0.30;;;;;;;18.69;73.80;101326.38;4954679;28;20078;-77
2023/07/21 09:02:48;;;;;;;1.08;0.30;;;;;;;18.69;74.46;101328.09;4951452;28;20043;-77
2023/07/21 09:05:19;;;;;;;0.28;0.25;;;;;;;18.60;75.02;101321.94;4954170;28;20394;-76
2023/07/21 09:07:48;;;;;;;0.63;0.30;;;;;;;18.56;75.09;101329.78;4959036;28;20046;-76
2023/07/21 09:10:31;;;;;;;0.93;0.28;;;;;;;18.55;74.77;101334.13;4951720;28;20054;-76
2023/07/21 09:13:00;;;;;;;0.50;0.40;;;;;;;18.54;74.25;101335.00;4953575;28;20147;-76
2023/07/21 09:15:28;;;;;;;0.30;0.30;;;;;;;18.55;74.55;101328.88;4952872;28;20089;-76
2023/07/21 09:17:57;;;;;;;0.50;0.30;;;;;;;18.54;75.04;101331.53;4947943;28;20071;-77
2023/07/21 09:20:31;;;;;;;0.60;0.50;;;;;;;18.52;74.95;101334.13;4949331;28;20044;-77
2023/07/21 09:23:00;;;;;;;0.82;0.40;;;;;;;18.50;74.86;101329.75;4946287;28;20055;-76
2023/07/21 09:25:29;;;;;;;2.38;0.50;;;;;;;18.46;75.86;101328.81;4951517;28;20061;-75
2023/07/21 09:27:58;;;;;;;1.85;0.43;;;;;;;18.38;76.06;101333.16;4950180;28;20055;-75
2023/07/21 09:30:27;;;;;;;0.93;0.22;;;;;;;18.36;76.56;101329.66;4952048;28;20049;-77
2023/07/21 09:32:57;;;;;;;0.40;0.40;;;;;;;18.30;76.87;101333.13;4950213;28;20059;-76
2023/07/21 09:35:30;;;;;;;0.63;0.30;;;;;;;18.27;77.14;101332.22;4954210;28;20054;-77
2023/07/21 09:38:01;;;;;;;0.70;0.40;;;;;;;18.17;77.32;101320.78;4945897;28;20590;-78
2023/07/21 09:40:30;;;;;;;0.85;0.47;;;;;;;18.14;76.94;101320.75;4954723;28;20659;-78
2023/07/21 09:43:01;;;;;;;0.95;0.38;;;;;;;18.20;76.82;101337.41;4951714;28;20043;-78
2023/07/21 09:45:30;;;;;;;0.50;0.30;;;;;;;18.19;76.53;101330.41;4952116;28;20474;-77
2023/07/21 09:47:59;;;;;;;0.70;0.40;;;;;;;18.17;77.41;101332.16;4952461;28;20940;-76
2023/07/21 09:50:30;;;;;;;1.63;0.60;;;;;;;18.16;76.85;101338.25;4951865;28;20051;-77
2023/07/21 09:53:05;;;;;;;1.77;0.73;;;;;;;18.14;77.69;101334.75;4952480;28;20059;-76
2023/07/21 09:55:41;;;;;;;0.65;0.43;;;;;;;18.07;78.11;101335.53;4952095;28;20505;-77
2023/07/21 09:58:19;;;;;;;0.63;0.40;;;;;;;18.00;78.02;101336.34;4942445;28;20135;-76
2023/07/21 10:00:49;;;;;;;2.88;0.50;;;;;;;17.99;78.65;101329.38;4955673;28;20051;-77
2023/07/21 10:03:18;;;;;;;0.40;0.30;;;;;;;17.99;78.72;101337.25;4952493;28;20127;-76
2023/07/21 10:05:49;;;;;;;0.65;0.28;;;;;;;17.97;78.07;101336.34;4946508;28;20044;-78
2023/07/21 10:08:18;;;;;;;0.52;0.40;;;;;;;17.95;78.56;101338.06;4947500;28;20565;-77
2023/07/21 10:10:47;;;;;;;1.85;0.52;;;;;;;17.94;78.15;101333.72;4949340;28;20050;-77
2023/07/21 10:13:15;;;;;;;0.50;0.30;;;;;;;17.92;78.49;101338.06;4950376;28;20047;-76
2023/07/21 10:15:49;;;;;;;1.45;0.85;;;;;;;17.89;78.98;101336.28;4948544;28;20553;-76
2023/07/21 10:18:20;;;;;;;1.23;0.55;;;;;;;17.83;78.59;101327.50;4949875;28;20134;-77
2023/07/21 10:20:51;;;;;;;3.20;0.75;;;;;;;17.83;79.20;101335.34;4942506;28;20047;-76
2023/07/21 10:23:24;;;;;;;1.13;0.57;;;;;;;17.80;78.84;101342.28;4950764;28;20107;-76
2023/07/21 10:26:03;;;;;;;1.27;0.40;;;;;;;17.77;79.13;101336.13;4947038;28;20051;-76
2023/07/21 10:28:43;;;;;;;0.40;0.30;;;;;;;17.74;79.06;101330.88;4961721;28;20129;-75
2023/07/21 10:31:39;;;;;;;1.02;0.50;;;;;;;17.67;79.28;101329.94;4951015;28;20047;-76
2023/07/21 10:34:11;;;;;;;1.65;0.50;;;;;;;17.68;79.04;101336.91;4946501;28;20083;-77
2023/07/21 10:36:56;;;;;;;2.72;0.25;;;;;;;17.63;79.28;101341.22;4950927;28;20043;-77
2023/07/21 10:39:27;;;;;;;0.77;0.45;;;;;;;17.59;79.56;101348.19;4946779;28;20051;-76
2023/07/21 10:41:57;;;;;;;0.38;0.30;;;;;;;17.56;79.38;101344.66;4951061;28;20050;-78
2023/07/21 10:44:33;;;;;;;0.65;0.30;;;;;;;17.54;79.85;101338.53;4956736;28;20043;-77
2023/07/21 10:47:01;;;;;;;2.47;0.47;;;;;;;17.51;80.34;101344.59;4948872;28;20278;-77
2023/07/21 10:49:30;;;;;;;0.75;0.50;;;;;;;17.48;79.94;101348.94;4949809;28;20043;-78
2023/07/21 10:52:04;;;;;;;1.33;0.55;;;;;;;17.45;80.48;101347.16;4953024;28;20586;-77
2023/07/21 10:54:33;;;;;;;0.40;0.35;;;;;;;17.42;80.37;101343.66;4954895;28;20050;-77
2023/07/21 10:57:02;;;;;;;0.88;0.30;;;;;;;17.40;80.84;101347.97;4952791;28;20055;-77
2023/07/21 10:59:34;;;;;;;0.85;0.55;;;;;;;17.26;82.82;101350.44;4951107;28;20046;-76
2023/07/21 11:02:04;;;;;;;2.13;0.50;;;;;;;17.11;83.11;101353.72;4948238;28;20051;-77
2023/07/21 11:04:33;;;;;;;1.88;0.52;;;;;;;17.02;83.92;101353.63;4950332;28;20051;-77
2023/07/21 11:07:03;;;;;;;1.40;0.50;;;;;;;16.91;84.89;101353.50;4949132;28;20059;-79
2023/07/21 11:09:34;;;;;;;1.25;0.50;;;;;;;16.83;85.30;101356.00;4950334;28;20117;-76
2023/07/21 11:12:03;;;;;;;1.00;0.40;;;;;;;16.85;84.63;101361.25;4949492;28;20054;-76
2023/07/21 11:14:31;;;;;;;1.52;0.30;;;;;;;16.80;85.71;101362.94;4946113;28;20055;-76
2023/07/21 11:17:02;;;;;;;1.52;0.70;;;;;;;16.76;85.90;101369.81;4940267;28;20056;-76
2023/07/21 11:19:31;;;;;;;0.77;0.50;;;;;;;16.79;84.46;101363.75;4951035;28;20572;-77
2023/07/21 11:22:00;;;;;;;0.90;0.40;;;;;;;16.83;85.03;101368.19;4949863;28;20513;-78
2023/07/21 11:24:32;;;;;;;0.82;0.38;;;;;;;16.83;84.50;101363.84;4947879;28;20048;-76
2023/07/21 11:27:03;;;;;;;1.45;0.52;;;;;;;16.85;84.00;101372.59;4944480;28;20188;-76
2023/07/21 11:29:32;;;;;;;1.73;0.65;;;;;;;16.87;84.11;101372.63;4948187;28;20056;-77
2023/07/21 11:32:01;;;;;;;1.02;0.40;;;;;;;16.87;84.83;101373.47;4945162;28;20103;-77
2023/07/21 11:34:30;;;;;;;0.52;0.30;;;;;;;16.86;84.50;101374.34;4950339;28;20059;-77
2023/07/21 11:37:00;;;;;;;0.75;0.40;;;;;;;16.86;85.41;101368.22;4947926;28;20071;-75